sensor_id;sensor_type;location;lat;lon;timestamp;P1;durP1;ratioP1;P2;durP2;ratioP2
65279;SDS011;51878;55.748;48.742;2023-12-04T00:03:32;6.35;;;3.53;;
65279;SDS011;51878;55.748;48.742;2023-12-04T00:08:37;4.80;;;3.20;;
65279;SDS011;51878;55.748;48.742;2023-12-04T00:13:39;5.03;;;3.75;;
65279;SDS011;51878;55.748;48.742;2023-12-04T00:18:42;5.22;;;3.10;;
65279;SDS011;51878;55.748;48.742;2023-12-04T00:23:44;10.90;;;3.83;;
65279;SDS011;51878;55.748;48.742;2023-12-04T00:28:46;5.45;;;3.42;;
65279;SDS011;51878;55.748;48.742;2023-12-04T00:33:48;4.53;;;3.45;;
65279;SDS011;51878;55.748;48.742;2023-12-04T00:38:51;6.80;;;3.25;;
65279;SDS011;51878;55.748;48.742;2023-12-04T00:43:53;3.90;;;2.78;;
65279;SDS011;51878;55.748;48.742;2023-12-04T00:48:55;4.95;;;3.05;;
65279;SDS011;51878;55.748;48.742;2023-12-04T00:53:57;5.18;;;3.20;;
65279;SDS011;51878;55.748;48.742;2023-12-04T00:59:00;4.35;;;3.55;;
65279;SDS011;51878;55.748;48.742;2023-12-04T01:04:02;3.75;;;2.53;;
65279;SDS011;51878;55.748;48.742;2023-12-04T01:09:05;2.50;;;2.17;;
65279;SDS011;51878;55.748;48.742;2023-12-04T01:14:07;3.90;;;3.20;;
65279;SDS011;51878;55.748;48.742;2023-12-04T01:19:09;5.25;;;3.55;;
65279;SDS011;51878;55.748;48.742;2023-12-04T01:24:12;6.75;;;3.92;;
65279;SDS011;51878;55.748;48.742;2023-12-04T01:29:16;5.80;;;3.35;;
65279;SDS011;51878;55.748;48.742;2023-12-04T01:34:18;3.42;;;2.53;;
65279;SDS011;51878;55.748;48.742;2023-12-04T01:39:20;4.05;;;2.95;;
65279;SDS011;51878;55.748;48.742;2023-12-04T01:44:22;2.38;;;1.98;;
65279;SDS011;51878;55.748;48.742;2023-12-04T01:49:26;3.42;;;2.85;;
65279;SDS011;51878;55.748;48.742;2023-12-04T01:54:29;5.68;;;3.95;;
65279;SDS011;51878;55.748;48.742;2023-12-04T01:59:32;4.28;;;3.10;;
65279;SDS011;51878;55.748;48.742;2023-12-04T02:04:34;5.35;;;2.65;;
65279;SDS011;51878;55.748;48.742;2023-12-04T02:09:37;3.53;;;2.80;;
65279;SDS011;51878;55.748;48.742;2023-12-04T02:14:39;6.45;;;2.97;;
65279;SDS011;51878;55.748;48.742;2023-12-04T02:19:42;2.92;;;2.50;;
65279;SDS011;51878;55.748;48.742;2023-12-04T02:24:45;3.45;;;2.53;;
65279;SDS011;51878;55.748;48.742;2023-12-04T02:29:52;5.55;;;2.85;;
65279;SDS011;51878;55.748;48.742;2023-12-04T02:35:02;6.25;;;3.10;;
65279;SDS011;51878;55.748;48.742;2023-12-04T02:40:06;2.92;;;2.50;;
65279;SDS011;51878;55.748;48.742;2023-12-04T02:45:09;6.25;;;2.67;;
65279;SDS011;51878;55.748;48.742;2023-12-04T02:50:11;2.95;;;2.53;;
65279;SDS011;51878;55.748;48.742;2023-12-04T02:55:14;2.45;;;1.95;;
65279;SDS011;51878;55.748;48.742;2023-12-04T03:00:16;3.67;;;2.40;;
65279;SDS011;51878;55.748;48.742;2023-12-04T03:05:19;3.85;;;2.53;;
65279;SDS011;51878;55.748;48.742;2023-12-04T03:10:21;2.28;;;2.00;;
65279;SDS011;51878;55.748;48.742;2023-12-04T03:15:23;2.58;;;2.08;;
65279;SDS011;51878;55.748;48.742;2023-12-04T03:20:26;1.83;;;1.60;;
65279;SDS011;51878;55.748;48.742;2023-12-04T03:25:28;2.20;;;1.75;;
65279;SDS011;51878;55.748;48.742;2023-12-04T03:30:30;2.75;;;2.20;;
65279;SDS011;51878;55.748;48.742;2023-12-04T03:35:32;1.63;;;1.50;;
65279;SDS011;51878;55.748;48.742;2023-12-04T03:40:35;3.75;;;2.17;;
65279;SDS011;51878;55.748;48.742;2023-12-04T03:45:37;2.60;;;2.03;;
65279;SDS011;51878;55.748;48.742;2023-12-04T03:50:39;3.88;;;2.40;;
65279;SDS011;51878;55.748;48.742;2023-12-04T03:55:41;3.60;;;3.03;;
65279;SDS011;51878;55.748;48.742;2023-12-04T04:00:44;1.95;;;1.80;;
65279;SDS011;51878;55.748;48.742;2023-12-04T04:05:46;3.75;;;2.63;;
65279;SDS011;51878;55.748;48.742;2023-12-04T04:10:48;4.95;;;2.95;;
65279;SDS011;51878;55.748;48.742;2023-12-04T04:15:50;3.25;;;2.72;;
65279;SDS011;51878;55.748;48.742;2023-12-04T04:20:53;3.08;;;2.65;;
65279;SDS011;51878;55.748;48.742;2023-12-04T04:25:55;4.35;;;3.50;;
65279;SDS011;51878;55.748;48.742;2023-12-04T04:30:57;5.03;;;3.63;;
65279;SDS011;51878;55.748;48.742;2023-12-04T04:35:59;4.38;;;3.42;;
65279;SDS011;51878;55.748;48.742;2023-12-04T04:41:02;5.65;;;3.70;;
65279;SDS011;51878;55.748;48.742;2023-12-04T04:46:04;5.20;;;3.42;;
65279;SDS011;51878;55.748;48.742;2023-12-04T04:51:06;4.75;;;3.55;;
65279;SDS011;51878;55.748;48.742;2023-12-04T04:56:09;5.10;;;3.53;;
65279;SDS011;51878;55.748;48.742;2023-12-04T05:01:12;5.80;;;4.10;;
65279;SDS011;51878;55.748;48.742;2023-12-04T05:06:14;8.95;;;4.13;;
65279;SDS011;51878;55.748;48.742;2023-12-04T05:11:16;5.93;;;3.63;;
65279;SDS011;51878;55.748;48.742;2023-12-04T05:16:18;6.10;;;3.90;;
65279;SDS011;51878;55.748;48.742;2023-12-04T05:21:21;4.47;;;3.20;;
65279;SDS011;51878;55.748;48.742;2023-12-04T05:26:23;7.15;;;4.13;;
65279;SDS011;51878;55.748;48.742;2023-12-04T05:31:25;1.85;;;1.73;;
65279;SDS011;51878;55.748;48.742;2023-12-04T05:36:30;4.90;;;2.80;;
65279;SDS011;51878;55.748;48.742;2023-12-04T05:41:32;3.15;;;2.33;;
65279;SDS011;51878;55.748;48.742;2023-12-04T05:46:34;4.38;;;3.28;;
65279;SDS011;51878;55.748;48.742;2023-12-04T05:51:37;1.52;;;1.20;;
65279;SDS011;51878;55.748;48.742;2023-12-04T05:56:39;2.03;;;1.75;;
65279;SDS011;51878;55.748;48.742;2023-12-04T06:01:43;1.63;;;1.45;;
65279;SDS011;51878;55.748;48.742;2023-12-04T06:06:49;2.17;;;1.70;;
65279;SDS011;51878;55.748;48.742;2023-12-04T06:11:55;1.35;;;1.25;;
65279;SDS011;51878;55.748;48.742;2023-12-04T06:16:57;1.58;;;1.30;;
65279;SDS011;51878;55.748;48.742;2023-12-04T06:22:02;1.40;;;1.30;;
65279;SDS011;51878;55.748;48.742;2023-12-04T06:27:05;1.70;;;1.30;;
65279;SDS011;51878;55.748;48.742;2023-12-04T06:32:13;1.23;;;1.13;;
65279;SDS011;51878;55.748;48.742;2023-12-04T06:37:16;1.35;;;1.25;;
65279;SDS011;51878;55.748;48.742;2023-12-04T06:42:18;1.33;;;1.23;;
65279;SDS011;51878;55.748;48.742;2023-12-04T06:47:22;2.50;;;1.45;;
65279;SDS011;51878;55.748;48.742;2023-12-04T06:52:25;1.30;;;1.20;;
65279;SDS011;51878;55.748;48.742;2023-12-04T06:57:27;1.23;;;1.13;;
65279;SDS011;51878;55.748;48.742;2023-12-04T07:02:29;0.77;;;0.77;;
65279;SDS011;51878;55.748;48.742;2023-12-04T07:07:32;0.80;;;0.80;;
65279;SDS011;51878;55.748;48.742;2023-12-04T07:12:34;0.88;;;0.88;;
65279;SDS011;51878;55.748;48.742;2023-12-04T07:17:36;1.08;;;1.02;;
65279;SDS011;51878;55.748;48.742;2023-12-04T07:22:39;1.05;;;1.05;;
65279;SDS011;51878;55.748;48.742;2023-12-04T07:27:41;1.30;;;1.20;;
65279;SDS011;51878;55.748;48.742;2023-12-04T07:32:43;1.30;;;1.20;;
65279;SDS011;51878;55.748;48.742;2023-12-04T07:37:48;0.95;;;0.95;;
65279;SDS011;51878;55.748;48.742;2023-12-04T07:42:51;1.00;;;1.00;;
65279;SDS011;51878;55.748;48.742;2023-12-04T07:47:53;1.20;;;1.10;;
65279;SDS011;51878;55.748;48.742;2023-12-04T07:52:55;2.45;;;1.15;;
65279;SDS011;51878;55.748;48.742;2023-12-04T07:57:57;1.02;;;1.00;;
65279;SDS011;51878;55.748;48.742;2023-12-04T08:03:00;1.30;;;1.20;;
65279;SDS011;51878;55.748;48.742;2023-12-04T08:08:02;1.13;;;1.13;;
65279;SDS011;51878;55.748;48.742;2023-12-04T08:13:05;2.03;;;1.63;;
65279;SDS011;51878;55.748;48.742;2023-12-04T08:18:11;1.80;;;1.67;;
65279;SDS011;51878;55.748;48.742;2023-12-04T08:23:14;3.47;;;2.40;;
65279;SDS011;51878;55.748;48.742;2023-12-04T08:28:17;2.00;;;1.80;;
65279;SDS011;51878;55.748;48.742;2023-12-04T08:33:19;3.13;;;2.50;;
65279;SDS011;51878;55.748;48.742;2023-12-04T08:38:25;5.10;;;2.97;;
65279;SDS011;51878;55.748;48.742;2023-12-04T08:43:27;3.53;;;2.33;;
65279;SDS011;51878;55.748;48.742;2023-12-04T08:48:32;3.85;;;2.92;;
65279;SDS011;51878;55.748;48.742;2023-12-04T08:53:38;3.97;;;2.85;;
65279;SDS011;51878;55.748;48.742;2023-12-04T08:58:40;2.95;;;2.60;;
65279;SDS011;51878;55.748;48.742;2023-12-04T09:03:42;2.75;;;2.17;;
65279;SDS011;51878;55.748;48.742;2023-12-04T09:08:44;2.70;;;2.30;;
65279;SDS011;51878;55.748;48.742;2023-12-04T09:13:51;2.72;;;2.13;;
65279;SDS011;51878;55.748;48.742;2023-12-04T09:18:54;3.17;;;2.58;;
65279;SDS011;51878;55.748;48.742;2023-12-04T09:23:56;2.42;;;2.22;;
65279;SDS011;51878;55.748;48.742;2023-12-04T09:28:59;4.00;;;3.08;;
65279;SDS011;51878;55.748;48.742;2023-12-04T09:34:02;3.65;;;2.88;;
65279;SDS011;51878;55.748;48.742;2023-12-04T09:39:04;3.78;;;3.03;;
65279;SDS011;51878;55.748;48.742;2023-12-04T09:44:07;3.17;;;2.67;;
65279;SDS011;51878;55.748;48.742;2023-12-04T09:49:10;4.35;;;3.30;;
65279;SDS011;51878;55.748;48.742;2023-12-04T09:54:13;3.63;;;2.92;;
65279;SDS011;51878;55.748;48.742;2023-12-04T09:59:18;3.13;;;2.58;;
65279;SDS011;51878;55.748;48.742;2023-12-04T10:04:40;4.38;;;3.13;;
65279;SDS011;51878;55.748;48.742;2023-12-04T10:09:43;3.08;;;2.45;;
65279;SDS011;51878;55.748;48.742;2023-12-04T10:14:46;2.80;;;2.42;;
65279;SDS011;51878;55.748;48.742;2023-12-04T10:20:05;2.90;;;2.30;;
65279;SDS011;51878;55.748;48.742;2023-12-04T10:25:14;2.38;;;2.13;;
65279;SDS011;51878;55.748;48.742;2023-12-04T10:30:27;4.07;;;2.90;;
65279;SDS011;51878;55.748;48.742;2023-12-04T10:35:33;3.20;;;2.42;;
65279;SDS011;51878;55.748;48.742;2023-12-04T10:40:45;2.33;;;2.13;;
65279;SDS011;51878;55.748;48.742;2023-12-04T10:45:47;2.90;;;2.35;;
65279;SDS011;51878;55.748;48.742;2023-12-04T10:50:50;3.60;;;2.33;;
65279;SDS011;51878;55.748;48.742;2023-12-04T10:55:54;3.50;;;2.40;;
65279;SDS011;51878;55.748;48.742;2023-12-04T11:01:01;2.45;;;2.05;;
65279;SDS011;51878;55.748;48.742;2023-12-04T11:06:06;1.80;;;1.70;;
65279;SDS011;51878;55.748;48.742;2023-12-04T11:11:27;2.50;;;1.83;;
65279;SDS011;51878;55.748;48.742;2023-12-04T11:16:37;2.92;;;2.20;;
65279;SDS011;51878;55.748;48.742;2023-12-04T11:21:49;3.47;;;2.30;;
65279;SDS011;51878;55.748;48.742;2023-12-04T11:26:52;2.28;;;2.08;;
65279;SDS011;51878;55.748;48.742;2023-12-04T11:32:14;1.92;;;1.70;;
65279;SDS011;51878;55.748;48.742;2023-12-04T11:37:21;2.97;;;2.10;;
65279;SDS011;51878;55.748;48.742;2023-12-04T11:42:25;2.22;;;2.00;;
65279;SDS011;51878;55.748;48.742;2023-12-04T11:47:30;2.72;;;2.05;;
65279;SDS011;51878;55.748;48.742;2023-12-04T11:52:34;4.03;;;2.20;;
65279;SDS011;51878;55.748;48.742;2023-12-04T11:57:40;2.47;;;2.10;;
65279;SDS011;51878;55.748;48.742;2023-12-04T12:08:13;3.30;;;2.25;;
65279;SDS011;51878;55.748;48.742;2023-12-04T12:13:16;2.78;;;2.42;;
65279;SDS011;51878;55.748;48.742;2023-12-04T12:18:21;3.55;;;2.47;;
65279;SDS011;51878;55.748;48.742;2023-12-04T12:23:27;4.85;;;3.08;;
65279;SDS011;51878;55.748;48.742;2023-12-04T12:28:30;6.78;;;3.85;;
65279;SDS011;51878;55.748;48.742;2023-12-04T12:39:08;5.25;;;3.40;;
65279;SDS011;51878;55.748;48.742;2023-12-04T12:44:11;6.20;;;4.57;;
65279;SDS011;51878;55.748;48.742;2023-12-04T12:49:22;6.78;;;4.22;;
65279;SDS011;51878;55.748;48.742;2023-12-04T12:54:30;9.02;;;6.72;;
65279;SDS011;51878;55.748;48.742;2023-12-04T12:59:34;4.95;;;3.20;;
65279;SDS011;51878;55.748;48.742;2023-12-04T13:04:38;5.78;;;3.60;;
65279;SDS011;51878;55.748;48.742;2023-12-04T13:09:42;6.43;;;3.85;;
65279;SDS011;51878;55.748;48.742;2023-12-04T13:14:45;6.47;;;4.20;;
65279;SDS011;51878;55.748;48.742;2023-12-04T13:19:53;4.05;;;2.60;;
65279;SDS011;51878;55.748;48.742;2023-12-04T13:24:55;5.05;;;3.20;;
65279;SDS011;51878;55.748;48.742;2023-12-04T13:29:57;5.00;;;3.80;;
65279;SDS011;51878;55.748;48.742;2023-12-04T13:34:59;4.28;;;3.33;;
65279;SDS011;51878;55.748;48.742;2023-12-04T13:40:05;6.55;;;3.45;;
65279;SDS011;51878;55.748;48.742;2023-12-04T13:45:17;5.00;;;3.05;;
65279;SDS011;51878;55.748;48.742;2023-12-04T13:50:34;5.25;;;3.08;;
65279;SDS011;51878;55.748;48.742;2023-12-04T13:55:36;5.72;;;3.50;;
65279;SDS011;51878;55.748;48.742;2023-12-04T14:01:02;7.45;;;4.03;;
65279;SDS011;51878;55.748;48.742;2023-12-04T14:06:14;5.95;;;4.32;;
65279;SDS011;51878;55.748;48.742;2023-12-04T14:11:18;5.28;;;4.00;;
65279;SDS011;51878;55.748;48.742;2023-12-04T14:16:22;4.80;;;3.42;;
65279;SDS011;51878;55.748;48.742;2023-12-04T14:21:25;5.72;;;4.07;;
65279;SDS011;51878;55.748;48.742;2023-12-04T14:26:27;7.65;;;5.00;;
65279;SDS011;51878;55.748;48.742;2023-12-04T14:31:29;6.07;;;3.80;;
65279;SDS011;51878;55.748;48.742;2023-12-04T14:36:32;7.97;;;4.90;;
65279;SDS011;51878;55.748;48.742;2023-12-04T14:41:35;15.77;;;3.88;;
65279;SDS011;51878;55.748;48.742;2023-12-04T14:46:38;6.13;;;3.58;;
65279;SDS011;51878;55.748;48.742;2023-12-04T14:51:40;6.50;;;4.22;;
65279;SDS011;51878;55.748;48.742;2023-12-04T15:02:16;7.13;;;5.10;;
65279;SDS011;51878;55.748;48.742;2023-12-04T15:07:37;6.30;;;4.55;;
65279;SDS011;51878;55.748;48.742;2023-12-04T15:12:48;8.02;;;4.88;;
65279;SDS011;51878;55.748;48.742;2023-12-04T15:18:02;6.28;;;4.40;;
65279;SDS011;51878;55.748;48.742;2023-12-04T15:23:27;6.85;;;4.43;;
65279;SDS011;51878;55.748;48.742;2023-12-04T15:28:29;7.35;;;5.35;;
65279;SDS011;51878;55.748;48.742;2023-12-04T15:33:31;6.75;;;4.15;;
65279;SDS011;51878;55.748;48.742;2023-12-04T15:38:45;6.55;;;4.22;;
65279;SDS011;51878;55.748;48.742;2023-12-04T15:43:47;4.88;;;3.50;;
65279;SDS011;51878;55.748;48.742;2023-12-04T15:48:52;7.82;;;5.22;;
65279;SDS011;51878;55.748;48.742;2023-12-04T15:53:56;3.45;;;2.72;;
65279;SDS011;51878;55.748;48.742;2023-12-04T15:58:59;5.50;;;4.07;;
65279;SDS011;51878;55.748;48.742;2023-12-04T16:04:02;5.50;;;4.07;;
65279;SDS011;51878;55.748;48.742;2023-12-04T16:09:05;5.53;;;3.63;;
65279;SDS011;51878;55.748;48.742;2023-12-04T16:14:07;5.53;;;3.83;;
65279;SDS011;51878;55.748;48.742;2023-12-04T16:19:11;5.10;;;3.47;;
65279;SDS011;51878;55.748;48.742;2023-12-04T16:24:13;7.40;;;5.05;;
65279;SDS011;51878;55.748;48.742;2023-12-04T16:29:15;6.53;;;4.15;;
65279;SDS011;51878;55.748;48.742;2023-12-04T16:34:18;5.72;;;3.78;;
65279;SDS011;51878;55.748;48.742;2023-12-04T16:39:20;7.95;;;4.50;;
65279;SDS011;51878;55.748;48.742;2023-12-04T16:44:25;3.85;;;3.17;;
65279;SDS011;51878;55.748;48.742;2023-12-04T16:49:27;4.47;;;2.90;;
65279;SDS011;51878;55.748;48.742;2023-12-04T16:54:29;4.03;;;3.53;;
65279;SDS011;51878;55.748;48.742;2023-12-04T16:59:32;7.65;;;4.53;;
65279;SDS011;51878;55.748;48.742;2023-12-04T17:04:35;7.63;;;4.60;;
65279;SDS011;51878;55.748;48.742;2023-12-04T17:09:37;5.18;;;3.45;;
65279;SDS011;51878;55.748;48.742;2023-12-04T17:14:40;6.57;;;4.13;;
65279;SDS011;51878;55.748;48.742;2023-12-04T17:19:42;7.40;;;4.75;;
65279;SDS011;51878;55.748;48.742;2023-12-04T17:24:51;5.75;;;4.30;;
65279;SDS011;51878;55.748;48.742;2023-12-04T17:29:53;7.72;;;4.47;;
65279;SDS011;51878;55.748;48.742;2023-12-04T17:34:56;6.03;;;4.03;;
65279;SDS011;51878;55.748;48.742;2023-12-04T17:39:58;7.78;;;5.13;;
65279;SDS011;51878;55.748;48.742;2023-12-04T18:43:09;5.50;;;3.85;;
65279;SDS011;51878;55.748;48.742;2023-12-04T18:48:13;5.70;;;4.05;;
65279;SDS011;51878;55.748;48.742;2023-12-04T18:53:20;5.55;;;3.38;;
65279;SDS011;51878;55.748;48.742;2023-12-04T18:58:22;5.63;;;3.65;;
65279;SDS011;51878;55.748;48.742;2023-12-04T19:03:25;4.07;;;2.80;;
65279;SDS011;51878;55.748;48.742;2023-12-04T19:08:27;6.57;;;3.25;;
65279;SDS011;51878;55.748;48.742;2023-12-04T19:13:29;5.28;;;3.78;;
65279;SDS011;51878;55.748;48.742;2023-12-04T19:18:31;4.22;;;2.63;;
65279;SDS011;51878;55.748;48.742;2023-12-04T19:23:35;5.75;;;4.43;;
65279;SDS011;51878;55.748;48.742;2023-12-04T19:28:38;5.32;;;3.50;;
65279;SDS011;51878;55.748;48.742;2023-12-04T19:33:40;5.53;;;3.75;;
65279;SDS011;51878;55.748;48.742;2023-12-04T19:38:43;2.55;;;2.25;;
65279;SDS011;51878;55.748;48.742;2023-12-04T19:43:45;7.85;;;3.40;;
65279;SDS011;51878;55.748;48.742;2023-12-04T19:48:48;4.20;;;3.42;;
65279;SDS011;51878;55.748;48.742;2023-12-04T19:53:50;4.07;;;2.63;;
65279;SDS011;51878;55.748;48.742;2023-12-04T19:58:52;3.40;;;2.38;;
65279;SDS011;51878;55.748;48.742;2023-12-04T20:03:54;4.13;;;2.75;;
65279;SDS011;51878;55.748;48.742;2023-12-04T20:08:59;1.88;;;1.70;;
65279;SDS011;51878;55.748;48.742;2023-12-04T20:14:01;5.38;;;3.45;;
65279;SDS011;51878;55.748;48.742;2023-12-04T20:19:05;4.88;;;2.35;;
65279;SDS011;51878;55.748;48.742;2023-12-04T20:24:07;3.92;;;2.65;;
65279;SDS011;51878;55.748;48.742;2023-12-04T20:29:09;6.40;;;4.25;;
65279;SDS011;51878;55.748;48.742;2023-12-04T20:34:12;5.43;;;3.42;;
65279;SDS011;51878;55.748;48.742;2023-12-04T20:39:14;4.72;;;3.03;;
65279;SDS011;51878;55.748;48.742;2023-12-04T20:44:17;3.35;;;2.42;;
65279;SDS011;51878;55.748;48.742;2023-12-04T20:49:20;4.50;;;3.22;;
65279;SDS011;51878;55.748;48.742;2023-12-04T20:54:26;2.30;;;2.03;;
65279;SDS011;51878;55.748;48.742;2023-12-04T20:59:32;5.13;;;3.20;;
65279;SDS011;51878;55.748;48.742;2023-12-04T21:04:37;5.90;;;3.10;;
65279;SDS011;51878;55.748;48.742;2023-12-04T21:09:39;4.82;;;3.90;;
65279;SDS011;51878;55.748;48.742;2023-12-04T21:14:43;4.90;;;3.65;;
65279;SDS011;51878;55.748;48.742;2023-12-04T21:19:45;6.60;;;3.70;;
65279;SDS011;51878;55.748;48.742;2023-12-04T21:24:48;4.05;;;2.83;;
65279;SDS011;51878;55.748;48.742;2023-12-04T21:29:53;3.92;;;3.03;;
65279;SDS011;51878;55.748;48.742;2023-12-04T21:34:58;5.93;;;3.28;;
65279;SDS011;51878;55.748;48.742;2023-12-04T21:40:04;5.47;;;3.67;;
65279;SDS011;51878;55.748;48.742;2023-12-04T21:45:07;4.32;;;3.30;;
65279;SDS011;51878;55.748;48.742;2023-12-04T21:50:14;8.40;;;4.63;;
65279;SDS011;51878;55.748;48.742;2023-12-04T21:55:16;4.93;;;3.13;;
65279;SDS011;51878;55.748;48.742;2023-12-04T22:00:21;5.38;;;3.72;;
65279;SDS011;51878;55.748;48.742;2023-12-04T22:05:26;4.28;;;2.92;;
65279;SDS011;51878;55.748;48.742;2023-12-04T22:10:28;3.33;;;2.20;;
65279;SDS011;51878;55.748;48.742;2023-12-04T22:15:30;4.25;;;3.05;;
65279;SDS011;51878;55.748;48.742;2023-12-04T22:20:36;6.20;;;3.20;;
65279;SDS011;51878;55.748;48.742;2023-12-04T22:25:38;5.45;;;3.20;;
65279;SDS011;51878;55.748;48.742;2023-12-04T22:30:40;3.67;;;2.15;;
65279;SDS011;51878;55.748;48.742;2023-12-04T22:35:46;8.25;;;3.78;;
65279;SDS011;51878;55.748;48.742;2023-12-04T22:40:49;5.35;;;3.22;;
65279;SDS011;51878;55.748;48.742;2023-12-04T22:45:51;4.70;;;2.90;;
65279;SDS011;51878;55.748;48.742;2023-12-04T22:50:53;5.30;;;3.30;;
65279;SDS011;51878;55.748;48.742;2023-12-04T22:55:55;6.35;;;3.75;;
65279;SDS011;51878;55.748;48.742;2023-12-04T23:00:58;5.10;;;3.45;;
65279;SDS011;51878;55.748;48.742;2023-12-04T23:06:00;4.53;;;2.90;;
65279;SDS011;51878;55.748;48.742;2023-12-04T23:11:02;5.75;;;3.15;;
65279;SDS011;51878;55.748;48.742;2023-12-04T23:16:06;4.20;;;3.20;;
65279;SDS011;51878;55.748;48.742;2023-12-04T23:21:09;4.88;;;3.58;;
65279;SDS011;51878;55.748;48.742;2023-12-04T23:26:11;7.05;;;4.65;;
65279;SDS011;51878;55.748;48.742;2023-12-04T23:31:13;2.55;;;2.30;;
65279;SDS011;51878;55.748;48.742;2023-12-04T23:36:15;4.68;;;2.88;;
65279;SDS011;51878;55.748;48.742;2023-12-04T23:41:18;4.20;;;2.80;;
65279;SDS011;51878;55.748;48.742;2023-12-04T23:46:20;5.28;;;2.95;;
65279;SDS011;51878;55.748;48.742;2023-12-04T23:51:23;3.78;;;2.92;;
65279;SDS011;51878;55.748;48.742;2023-12-04T23:56:25;3.55;;;2.67;;
